sensor_id;sensor_type;location;lat;lon;timestamp;P1;durP1;ratioP1;P2;durP2;ratioP2
17631;SDS011;8934;51.194;17.150;2023-06-19T00:00:56;12.40;;;10.82;;
17631;SDS011;8934;51.194;17.150;2023-06-19T00:03:44;12.80;;;11.50;;
17631;SDS011;8934;51.194;17.150;2023-06-19T00:06:31;11.23;;;10.13;;
17631;SDS011;8934;51.194;17.150;2023-06-19T00:09:20;11.23;;;10.13;;
17631;SDS011;8934;51.194;17.150;2023-06-19T00:12:08;12.20;;;10.75;;
17631;SDS011;8934;51.194;17.150;2023-06-19T00:14:57;11.52;;;10.25;;
17631;SDS011;8934;51.194;17.150;2023-06-19T00:17:44;11.93;;;10.73;;
17631;SDS011;8934;51.194;17.150;2023-06-19T00:20:32;11.10;;;9.95;;
17631;SDS011;8934;51.194;17.150;2023-06-19T00:23:20;11.25;;;10.10;;
17631;SDS011;8934;51.194;17.150;2023-06-19T00:26:09;11.80;;;10.60;;
17631;SDS011;8934;51.194;17.150;2023-06-19T00:29:00;11.80;;;10.60;;
17631;SDS011;8934;51.194;17.150;2023-06-19T00:31:48;12.73;;;11.43;;
17631;SDS011;8934;51.194;17.150;2023-06-19T00:34:36;11.00;;;9.90;;
17631;SDS011;8934;51.194;17.150;2023-06-19T00:37:24;11.18;;;10.07;;
17631;SDS011;8934;51.194;17.150;2023-06-19T00:40:21;12.18;;;10.98;;
17631;SDS011;8934;51.194;17.150;2023-06-19T00:43:15;12.02;;;10.75;;
17631;SDS011;8934;51.194;17.150;2023-06-19T00:46:03;12.60;;;10.82;;
17631;SDS011;8934;51.194;17.150;2023-06-19T00:48:51;13.13;;;10.68;;
17631;SDS011;8934;51.194;17.150;2023-06-19T00:51:39;9.02;;;6.32;;
17631;SDS011;8934;51.194;17.150;2023-06-19T00:54:27;12.55;;;11.25;;
17631;SDS011;8934;51.194;17.150;2023-06-19T00:57:16;13.48;;;11.73;;
17631;SDS011;8934;51.194;17.150;2023-06-19T01:00:07;13.35;;;10.98;;
17631;SDS011;8934;51.194;17.150;2023-06-19T01:02:58;10.30;;;6.63;;
17631;SDS011;8934;51.194;17.150;2023-06-19T01:05:47;9.25;;;6.47;;
17631;SDS011;8934;51.194;17.150;2023-06-19T01:08:41;12.27;;;11.07;;
17631;SDS011;8934;51.194;17.150;2023-06-19T01:11:33;12.60;;;11.40;;
17631;SDS011;8934;51.194;17.150;2023-06-19T01:14:31;13.50;;;11.75;;
17631;SDS011;8934;51.194;17.150;2023-06-19T01:17:26;12.75;;;11.55;;
17631;SDS011;8934;51.194;17.150;2023-06-19T01:20:15;10.27;;;7.97;;
17631;SDS011;8934;51.194;17.150;2023-06-19T01:23:09;12.65;;;11.40;;
17631;SDS011;8934;51.194;17.150;2023-06-19T01:25:57;7.45;;;5.57;;
17631;SDS011;8934;51.194;17.150;2023-06-19T01:28:45;8.23;;;5.35;;
17631;SDS011;8934;51.194;17.150;2023-06-19T01:31:34;12.73;;;11.25;;
17631;SDS011;8934;51.194;17.150;2023-06-19T01:34:26;14.15;;;11.73;;
17631;SDS011;8934;51.194;17.150;2023-06-19T01:37:16;13.02;;;11.73;;
17631;SDS011;8934;51.194;17.150;2023-06-19T01:40:06;8.25;;;6.50;;
17631;SDS011;8934;51.194;17.150;2023-06-19T01:42:57;7.60;;;5.93;;
17631;SDS011;8934;51.194;17.150;2023-06-19T01:45:47;8.13;;;6.07;;
17631;SDS011;8934;51.194;17.150;2023-06-19T01:48:36;7.82;;;5.57;;
17631;SDS011;8934;51.194;17.150;2023-06-19T01:51:25;8.50;;;6.22;;
17631;SDS011;8934;51.194;17.150;2023-06-19T01:54:12;11.80;;;10.70;;
17631;SDS011;8934;51.194;17.150;2023-06-19T01:57:01;11.15;;;7.47;;
17631;SDS011;8934;51.194;17.150;2023-06-19T01:59:49;9.40;;;6.55;;
17631;SDS011;8934;51.194;17.150;2023-06-19T02:02:37;7.90;;;5.10;;
17631;SDS011;8934;51.194;17.150;2023-06-19T02:05:25;9.30;;;5.93;;
17631;SDS011;8934;51.194;17.150;2023-06-19T02:08:12;8.60;;;5.53;;
17631;SDS011;8934;51.194;17.150;2023-06-19T02:10:59;9.13;;;5.47;;
17631;SDS011;8934;51.194;17.150;2023-06-19T02:13:50;7.43;;;5.40;;
17631;SDS011;8934;51.194;17.150;2023-06-19T02:16:38;9.77;;;6.47;;
17631;SDS011;8934;51.194;17.150;2023-06-19T02:19:29;9.35;;;6.10;;
17631;SDS011;8934;51.194;17.150;2023-06-19T02:22:17;7.38;;;6.20;;
17631;SDS011;8934;51.194;17.150;2023-06-19T02:25:05;7.18;;;5.15;;
17631;SDS011;8934;51.194;17.150;2023-06-19T02:27:54;7.15;;;5.05;;
17631;SDS011;8934;51.194;17.150;2023-06-19T02:30:42;7.90;;;5.95;;
17631;SDS011;8934;51.194;17.150;2023-06-19T02:33:30;8.48;;;5.22;;
17631;SDS011;8934;51.194;17.150;2023-06-19T02:36:18;8.60;;;5.50;;
17631;SDS011;8934;51.194;17.150;2023-06-19T02:39:06;6.93;;;5.35;;
17631;SDS011;8934;51.194;17.150;2023-06-19T02:41:53;8.32;;;5.97;;
17631;SDS011;8934;51.194;17.150;2023-06-19T02:44:41;10.65;;;6.00;;
17631;SDS011;8934;51.194;17.150;2023-06-19T02:47:30;6.53;;;4.65;;
17631;SDS011;8934;51.194;17.150;2023-06-19T02:50:18;13.73;;;11.65;;
17631;SDS011;8934;51.194;17.150;2023-06-19T02:53:06;13.07;;;11.73;;
17631;SDS011;8934;51.194;17.150;2023-06-19T02:55:54;8.85;;;6.78;;
17631;SDS011;8934;51.194;17.150;2023-06-19T02:58:41;7.68;;;5.97;;
17631;SDS011;8934;51.194;17.150;2023-06-19T03:01:29;10.38;;;6.03;;
17631;SDS011;8934;51.194;17.150;2023-06-19T03:04:18;12.45;;;6.57;;
17631;SDS011;8934;51.194;17.150;2023-06-19T03:07:06;13.93;;;8.88;;
17631;SDS011;8934;51.194;17.150;2023-06-19T03:09:54;11.82;;;6.68;;
17631;SDS011;8934;51.194;17.150;2023-06-19T03:12:41;10.55;;;6.57;;
17631;SDS011;8934;51.194;17.150;2023-06-19T03:15:29;8.55;;;5.30;;
17631;SDS011;8934;51.194;17.150;2023-06-19T03:18:17;10.02;;;6.75;;
17631;SDS011;8934;51.194;17.150;2023-06-19T03:21:06;11.02;;;5.90;;
17631;SDS011;8934;51.194;17.150;2023-06-19T03:23:53;15.15;;;13.55;;
17631;SDS011;8934;51.194;17.150;2023-06-19T03:26:42;14.85;;;10.50;;
17631;SDS011;8934;51.194;17.150;2023-06-19T03:29:30;10.93;;;6.97;;
17631;SDS011;8934;51.194;17.150;2023-06-19T03:32:23;12.10;;;7.15;;
17631;SDS011;8934;51.194;17.150;2023-06-19T03:35:11;12.23;;;7.72;;
17631;SDS011;8934;51.194;17.150;2023-06-19T03:38:03;10.60;;;7.00;;
17631;SDS011;8934;51.194;17.150;2023-06-19T03:40:50;10.38;;;7.75;;
17631;SDS011;8934;51.194;17.150;2023-06-19T03:43:39;16.60;;;14.93;;
17631;SDS011;8934;51.194;17.150;2023-06-19T03:46:26;14.68;;;9.90;;
17631;SDS011;8934;51.194;17.150;2023-06-19T03:49:15;15.75;;;7.97;;
17631;SDS011;8934;51.194;17.150;2023-06-19T03:52:03;13.00;;;8.23;;
17631;SDS011;8934;51.194;17.150;2023-06-19T03:54:55;16.48;;;10.15;;
17631;SDS011;8934;51.194;17.150;2023-06-19T03:57:43;22.48;;;19.08;;
17631;SDS011;8934;51.194;17.150;2023-06-19T04:00:31;24.50;;;18.95;;
17631;SDS011;8934;51.194;17.150;2023-06-19T04:03:18;28.50;;;24.02;;
17631;SDS011;8934;51.194;17.150;2023-06-19T04:06:06;26.65;;;23.70;;
17631;SDS011;8934;51.194;17.150;2023-06-19T04:08:57;30.10;;;25.10;;
17631;SDS011;8934;51.194;17.150;2023-06-19T04:11:46;28.33;;;25.30;;
17631;SDS011;8934;51.194;17.150;2023-06-19T04:14:34;31.17;;;26.35;;
17631;SDS011;8934;51.194;17.150;2023-06-19T04:17:22;27.02;;;23.92;;
17631;SDS011;8934;51.194;17.150;2023-06-19T04:20:10;31.40;;;26.67;;
17631;SDS011;8934;51.194;17.150;2023-06-19T04:22:58;32.08;;;26.98;;
17631;SDS011;8934;51.194;17.150;2023-06-19T04:25:46;28.98;;;25.95;;
17631;SDS011;8934;51.194;17.150;2023-06-19T04:28:36;29.40;;;24.77;;
17631;SDS011;8934;51.194;17.150;2023-06-19T04:31:25;29.13;;;24.40;;
17631;SDS011;8934;51.194;17.150;2023-06-19T04:34:12;29.38;;;23.92;;
17631;SDS011;8934;51.194;17.150;2023-06-19T04:37:01;29.08;;;24.27;;
17631;SDS011;8934;51.194;17.150;2023-06-19T04:39:48;27.92;;;23.70;;
17631;SDS011;8934;51.194;17.150;2023-06-19T04:42:36;24.90;;;21.90;;
17631;SDS011;8934;51.194;17.150;2023-06-19T04:45:26;29.35;;;23.50;;
17631;SDS011;8934;51.194;17.150;2023-06-19T04:48:14;26.30;;;21.95;;
17631;SDS011;8934;51.194;17.150;2023-06-19T04:51:02;26.75;;;21.35;;
17631;SDS011;8934;51.194;17.150;2023-06-19T04:53:49;25.30;;;22.15;;
17631;SDS011;8934;51.194;17.150;2023-06-19T04:56:37;26.55;;;22.10;;
17631;SDS011;8934;51.194;17.150;2023-06-19T04:59:25;25.42;;;22.05;;
17631;SDS011;8934;51.194;17.150;2023-06-19T05:02:14;25.67;;;20.13;;
17631;SDS011;8934;51.194;17.150;2023-06-19T05:05:01;29.52;;;24.30;;
17631;SDS011;8934;51.194;17.150;2023-06-19T05:07:49;34.50;;;24.70;;
17631;SDS011;8934;51.194;17.150;2023-06-19T05:10:37;34.08;;;26.13;;
17631;SDS011;8934;51.194;17.150;2023-06-19T05:13:24;33.45;;;26.13;;
17631;SDS011;8934;51.194;17.150;2023-06-19T05:16:12;38.10;;;25.88;;
17631;SDS011;8934;51.194;17.150;2023-06-19T05:19:04;36.22;;;25.73;;
17631;SDS011;8934;51.194;17.150;2023-06-19T05:21:51;39.03;;;27.10;;
17631;SDS011;8934;51.194;17.150;2023-06-19T05:24:39;38.60;;;26.45;;
17631;SDS011;8934;51.194;17.150;2023-06-19T05:27:26;29.20;;;23.48;;
17631;SDS011;8934;51.194;17.150;2023-06-19T05:30:14;28.95;;;22.55;;
17631;SDS011;8934;51.194;17.150;2023-06-19T05:33:02;29.20;;;22.00;;
17631;SDS011;8934;51.194;17.150;2023-06-19T05:35:51;27.30;;;19.52;;
17631;SDS011;8934;51.194;17.150;2023-06-19T05:38:39;21.80;;;18.08;;
17631;SDS011;8934;51.194;17.150;2023-06-19T05:41:27;25.60;;;22.35;;
17631;SDS011;8934;51.194;17.150;2023-06-19T05:44:16;26.98;;;21.55;;
17631;SDS011;8934;51.194;17.150;2023-06-19T05:47:05;25.35;;;20.77;;
17631;SDS011;8934;51.194;17.150;2023-06-19T05:49:53;24.15;;;19.83;;
17631;SDS011;8934;51.194;17.150;2023-06-19T05:52:42;28.23;;;20.23;;
17631;SDS011;8934;51.194;17.150;2023-06-19T05:55:30;22.13;;;18.80;;
17631;SDS011;8934;51.194;17.150;2023-06-19T05:58:18;19.95;;;17.90;;
17631;SDS011;8934;51.194;17.150;2023-06-19T06:01:07;18.13;;;16.10;;
17631;SDS011;8934;51.194;17.150;2023-06-19T06:03:55;18.40;;;16.50;;
17631;SDS011;8934;51.194;17.150;2023-06-19T06:06:42;16.58;;;14.95;;
17631;SDS011;8934;51.194;17.150;2023-06-19T06:09:31;18.25;;;15.48;;
17631;SDS011;8934;51.194;17.150;2023-06-19T06:12:20;17.45;;;14.30;;
17631;SDS011;8934;51.194;17.150;2023-06-19T06:15:07;14.80;;;13.20;;
17631;SDS011;8934;51.194;17.150;2023-06-19T06:17:55;14.32;;;12.93;;
17631;SDS011;8934;51.194;17.150;2023-06-19T06:20:43;14.18;;;12.68;;
17631;SDS011;8934;51.194;17.150;2023-06-19T06:23:31;14.00;;;12.60;;
17631;SDS011;8934;51.194;17.150;2023-06-19T06:26:20;12.95;;;11.63;;
17631;SDS011;8934;51.194;17.150;2023-06-19T06:29:07;15.48;;;12.45;;
17631;SDS011;8934;51.194;17.150;2023-06-19T06:32:02;13.32;;;11.93;;
17631;SDS011;8934;51.194;17.150;2023-06-19T06:34:50;13.13;;;11.88;;
17631;SDS011;8934;51.194;17.150;2023-06-19T06:37:38;13.85;;;12.45;;
17631;SDS011;8934;51.194;17.150;2023-06-19T06:40:26;13.40;;;12.00;;
17631;SDS011;8934;51.194;17.150;2023-06-19T06:43:15;13.40;;;12.20;;
17631;SDS011;8934;51.194;17.150;2023-06-19T06:46:02;12.43;;;10.40;;
17631;SDS011;8934;51.194;17.150;2023-06-19T06:48:50;13.18;;;11.90;;
17631;SDS011;8934;51.194;17.150;2023-06-19T06:51:37;13.35;;;11.85;;
17631;SDS011;8934;51.194;17.150;2023-06-19T06:54:25;13.82;;;11.90;;
17631;SDS011;8934;51.194;17.150;2023-06-19T06:57:12;11.80;;;10.57;;
17631;SDS011;8934;51.194;17.150;2023-06-19T07:00:05;11.48;;;10.20;;
17631;SDS011;8934;51.194;17.150;2023-06-19T07:02:55;12.63;;;10.18;;
17631;SDS011;8934;51.194;17.150;2023-06-19T07:05:43;10.05;;;9.05;;
17631;SDS011;8934;51.194;17.150;2023-06-19T07:08:31;9.15;;;8.20;;
17631;SDS011;8934;51.194;17.150;2023-06-19T07:11:19;9.77;;;8.75;;
17631;SDS011;8934;51.194;17.150;2023-06-19T07:14:06;11.07;;;9.82;;
17631;SDS011;8934;51.194;17.150;2023-06-19T07:16:55;11.38;;;10.18;;
17631;SDS011;8934;51.194;17.150;2023-06-19T07:19:43;13.23;;;10.90;;
17631;SDS011;8934;51.194;17.150;2023-06-19T07:22:30;11.85;;;10.65;;
17631;SDS011;8934;51.194;17.150;2023-06-19T07:25:18;10.02;;;9.02;;
17631;SDS011;8934;51.194;17.150;2023-06-19T07:28:06;12.52;;;9.73;;
17631;SDS011;8934;51.194;17.150;2023-06-19T07:30:54;10.75;;;9.73;;
17631;SDS011;8934;51.194;17.150;2023-06-19T07:33:42;11.35;;;9.05;;
17631;SDS011;8934;51.194;17.150;2023-06-19T07:36:30;10.52;;;8.93;;
17631;SDS011;8934;51.194;17.150;2023-06-19T07:39:18;10.20;;;8.68;;
17631;SDS011;8934;51.194;17.150;2023-06-19T07:42:05;9.38;;;8.25;;
17631;SDS011;8934;51.194;17.150;2023-06-19T07:44:53;9.20;;;7.97;;
17631;SDS011;8934;51.194;17.150;2023-06-19T07:47:40;8.68;;;7.88;;
17631;SDS011;8934;51.194;17.150;2023-06-19T07:50:29;12.10;;;9.27;;
17631;SDS011;8934;51.194;17.150;2023-06-19T07:53:18;10.43;;;8.10;;
17631;SDS011;8934;51.194;17.150;2023-06-19T07:56:05;9.35;;;8.40;;
17631;SDS011;8934;51.194;17.150;2023-06-19T07:58:54;9.13;;;8.15;;
17631;SDS011;8934;51.194;17.150;2023-06-19T08:01:42;8.75;;;7.88;;
17631;SDS011;8934;51.194;17.150;2023-06-19T08:04:29;9.77;;;8.82;;
17631;SDS011;8934;51.194;17.150;2023-06-19T08:07:20;10.90;;;8.98;;
17631;SDS011;8934;51.194;17.150;2023-06-19T08:10:08;9.05;;;8.23;;
17631;SDS011;8934;51.194;17.150;2023-06-19T08:12:59;7.15;;;6.45;;
17631;SDS011;8934;51.194;17.150;2023-06-19T08:15:47;10.43;;;6.90;;
17631;SDS011;8934;51.194;17.150;2023-06-19T08:18:34;8.85;;;6.70;;
17631;SDS011;8934;51.194;17.150;2023-06-19T08:21:22;8.82;;;7.20;;
17631;SDS011;8934;51.194;17.150;2023-06-19T08:24:11;8.13;;;7.15;;
17631;SDS011;8934;51.194;17.150;2023-06-19T08:26:59;7.65;;;6.88;;
17631;SDS011;8934;51.194;17.150;2023-06-19T08:29:47;7.50;;;6.80;;
17631;SDS011;8934;51.194;17.150;2023-06-19T08:32:34;6.53;;;5.80;;
17631;SDS011;8934;51.194;17.150;2023-06-19T08:35:22;6.07;;;5.47;;
17631;SDS011;8934;51.194;17.150;2023-06-19T08:38:10;5.90;;;5.30;;
17631;SDS011;8934;51.194;17.150;2023-06-19T08:40:59;7.63;;;5.03;;
17631;SDS011;8934;51.194;17.150;2023-06-19T08:43:46;5.68;;;5.13;;
17631;SDS011;8934;51.194;17.150;2023-06-19T08:46:34;5.88;;;5.28;;
17631;SDS011;8934;51.194;17.150;2023-06-19T08:49:23;6.50;;;5.90;;
17631;SDS011;8934;51.194;17.150;2023-06-19T08:52:10;6.57;;;5.53;;
17631;SDS011;8934;51.194;17.150;2023-06-19T08:54:58;8.80;;;6.68;;
17631;SDS011;8934;51.194;17.150;2023-06-19T08:57:48;7.03;;;6.40;;
17631;SDS011;8934;51.194;17.150;2023-06-19T09:00:37;7.97;;;6.53;;
17631;SDS011;8934;51.194;17.150;2023-06-19T09:03:25;8.90;;;5.97;;
17631;SDS011;8934;51.194;17.150;2023-06-19T09:06:14;6.68;;;6.00;;
17631;SDS011;8934;51.194;17.150;2023-06-19T09:09:02;6.10;;;5.43;;
17631;SDS011;8934;51.194;17.150;2023-06-19T09:11:56;6.75;;;6.00;;
17631;SDS011;8934;51.194;17.150;2023-06-19T09:14:47;8.18;;;6.93;;
17631;SDS011;8934;51.194;17.150;2023-06-19T09:17:34;7.22;;;5.28;;
17631;SDS011;8934;51.194;17.150;2023-06-19T09:20:32;6.30;;;5.70;;
17631;SDS011;8934;51.194;17.150;2023-06-19T09:23:22;6.13;;;5.43;;
17631;SDS011;8934;51.194;17.150;2023-06-19T09:26:13;6.63;;;5.95;;
17631;SDS011;8934;51.194;17.150;2023-06-19T09:29:11;6.60;;;5.68;;
17631;SDS011;8934;51.194;17.150;2023-06-19T09:32:19;6.03;;;5.28;;
17631;SDS011;8934;51.194;17.150;2023-06-19T09:35:09;7.43;;;5.18;;
17631;SDS011;8934;51.194;17.150;2023-06-19T09:37:57;5.60;;;5.07;;
17631;SDS011;8934;51.194;17.150;2023-06-19T09:40:45;5.70;;;5.20;;
17631;SDS011;8934;51.194;17.150;2023-06-19T09:43:36;5.72;;;5.20;;
17631;SDS011;8934;51.194;17.150;2023-06-19T09:46:25;6.55;;;5.55;;
17631;SDS011;8934;51.194;17.150;2023-06-19T09:49:17;6.15;;;5.55;;
17631;SDS011;8934;51.194;17.150;2023-06-19T09:52:07;5.50;;;5.07;;
17631;SDS011;8934;51.194;17.150;2023-06-19T09:54:55;6.13;;;5.53;;
17631;SDS011;8934;51.194;17.150;2023-06-19T09:57:43;6.05;;;5.35;;
17631;SDS011;8934;51.194;17.150;2023-06-19T10:00:32;5.03;;;4.60;;
17631;SDS011;8934;51.194;17.150;2023-06-19T10:03:21;5.57;;;5.07;;
17631;SDS011;8934;51.194;17.150;2023-06-19T10:06:18;5.85;;;5.28;;
17631;SDS011;8934;51.194;17.150;2023-06-19T10:09:09;6.18;;;5.47;;
17631;SDS011;8934;51.194;17.150;2023-06-19T10:11:57;5.50;;;5.00;;
17631;SDS011;8934;51.194;17.150;2023-06-19T10:14:46;5.32;;;4.93;;
17631;SDS011;8934;51.194;17.150;2023-06-19T10:17:34;5.32;;;4.82;;
17631;SDS011;8934;51.194;17.150;2023-06-19T10:20:25;5.78;;;5.28;;
17631;SDS011;8934;51.194;17.150;2023-06-19T10:23:20;5.55;;;5.07;;
17631;SDS011;8934;51.194;17.150;2023-06-19T10:26:15;8.15;;;5.03;;
17631;SDS011;8934;51.194;17.150;2023-06-19T10:29:12;5.35;;;4.82;;
17631;SDS011;8934;51.194;17.150;2023-06-19T10:32:01;8.40;;;4.88;;
17631;SDS011;8934;51.194;17.150;2023-06-19T10:34:48;5.32;;;4.82;;
17631;SDS011;8934;51.194;17.150;2023-06-19T10:37:36;5.32;;;4.82;;
17631;SDS011;8934;51.194;17.150;2023-06-19T10:40:25;5.18;;;4.68;;
17631;SDS011;8934;51.194;17.150;2023-06-19T10:43:18;5.70;;;4.72;;
17631;SDS011;8934;51.194;17.150;2023-06-19T10:46:07;5.25;;;4.75;;
17631;SDS011;8934;51.194;17.150;2023-06-19T10:48:55;5.10;;;4.70;;
17631;SDS011;8934;51.194;17.150;2023-06-19T10:51:48;4.43;;;4.03;;
17631;SDS011;8934;51.194;17.150;2023-06-19T10:54:35;4.88;;;4.47;;
17631;SDS011;8934;51.194;17.150;2023-06-19T10:57:28;5.05;;;4.47;;
17631;SDS011;8934;51.194;17.150;2023-06-19T11:00:23;4.90;;;4.43;;
17631;SDS011;8934;51.194;17.150;2023-06-19T11:03:12;4.82;;;4.43;;
17631;SDS011;8934;51.194;17.150;2023-06-19T11:05:59;5.13;;;4.68;;
17631;SDS011;8934;51.194;17.150;2023-06-19T11:08:50;5.20;;;4.65;;
17631;SDS011;8934;51.194;17.150;2023-06-19T11:11:38;5.18;;;4.40;;
17631;SDS011;8934;51.194;17.150;2023-06-19T11:14:30;4.30;;;3.90;;
17631;SDS011;8934;51.194;17.150;2023-06-19T11:17:17;4.90;;;4.50;;
17631;SDS011;8934;51.194;17.150;2023-06-19T11:20:09;4.57;;;4.18;;
17631;SDS011;8934;51.194;17.150;2023-06-19T11:22:59;4.43;;;4.05;;
17631;SDS011;8934;51.194;17.150;2023-06-19T11:25:47;4.82;;;4.40;;
17631;SDS011;8934;51.194;17.150;2023-06-19T11:28:35;4.97;;;4.47;;
17631;SDS011;8934;51.194;17.150;2023-06-19T11:31:27;5.32;;;4.35;;
17631;SDS011;8934;51.194;17.150;2023-06-19T11:34:15;4.93;;;4.43;;
17631;SDS011;8934;51.194;17.150;2023-06-19T11:37:11;5.03;;;4.63;;
17631;SDS011;8934;51.194;17.150;2023-06-19T11:40:00;5.00;;;4.60;;
17631;SDS011;8934;51.194;17.150;2023-06-19T11:42:52;4.63;;;4.20;;
17631;SDS011;8934;51.194;17.150;2023-06-19T11:45:47;4.88;;;4.47;;
17631;SDS011;8934;51.194;17.150;2023-06-19T11:48:37;5.40;;;4.63;;
17631;SDS011;8934;51.194;17.150;2023-06-19T11:51:25;5.40;;;4.78;;
17631;SDS011;8934;51.194;17.150;2023-06-19T11:54:13;4.57;;;4.18;;
17631;SDS011;8934;51.194;17.150;2023-06-19T11:57:01;4.72;;;4.32;;
17631;SDS011;8934;51.194;17.150;2023-06-19T11:59:49;4.30;;;4.00;;
17631;SDS011;8934;51.194;17.150;2023-06-19T12:02:37;4.78;;;4.18;;
17631;SDS011;8934;51.194;17.150;2023-06-19T12:05:26;4.55;;;4.10;;
17631;SDS011;8934;51.194;17.150;2023-06-19T12:08:14;4.63;;;4.07;;
17631;SDS011;8934;51.194;17.150;2023-06-19T12:11:01;4.47;;;4.07;;
17631;SDS011;8934;51.194;17.150;2023-06-19T12:13:50;5.03;;;4.63;;
17631;SDS011;8934;51.194;17.150;2023-06-19T12:16:41;4.97;;;4.57;;
17631;SDS011;8934;51.194;17.150;2023-06-19T12:19:29;5.22;;;4.72;;
17631;SDS011;8934;51.194;17.150;2023-06-19T12:22:17;4.35;;;3.95;;
17631;SDS011;8934;51.194;17.150;2023-06-19T12:25:05;5.93;;;5.13;;
17631;SDS011;8934;51.194;17.150;2023-06-19T12:27:53;7.55;;;4.47;;
17631;SDS011;8934;51.194;17.150;2023-06-19T12:30:41;5.65;;;4.93;;
17631;SDS011;8934;51.194;17.150;2023-06-19T12:33:29;6.53;;;4.88;;
17631;SDS011;8934;51.194;17.150;2023-06-19T12:36:19;6.20;;;4.85;;
17631;SDS011;8934;51.194;17.150;2023-06-19T12:39:08;6.28;;;4.72;;
17631;SDS011;8934;51.194;17.150;2023-06-19T12:42:02;4.95;;;4.55;;
17631;SDS011;8934;51.194;17.150;2023-06-19T12:44:49;5.57;;;4.63;;
17631;SDS011;8934;51.194;17.150;2023-06-19T12:47:37;4.78;;;4.28;;
17631;SDS011;8934;51.194;17.150;2023-06-19T12:50:25;4.88;;;4.47;;
17631;SDS011;8934;51.194;17.150;2023-06-19T12:53:13;5.38;;;4.45;;
17631;SDS011;8934;51.194;17.150;2023-06-19T12:56:01;5.20;;;4.50;;
17631;SDS011;8934;51.194;17.150;2023-06-19T12:58:55;5.03;;;4.50;;
17631;SDS011;8934;51.194;17.150;2023-06-19T13:01:42;5.20;;;4.60;;
17631;SDS011;8934;51.194;17.150;2023-06-19T13:04:30;5.53;;;5.07;;
17631;SDS011;8934;51.194;17.150;2023-06-19T13:07:17;6.00;;;4.45;;
17631;SDS011;8934;51.194;17.150;2023-06-19T13:10:06;5.95;;;4.60;;
17631;SDS011;8934;51.194;17.150;2023-06-19T13:12:55;5.35;;;4.95;;
17631;SDS011;8934;51.194;17.150;2023-06-19T13:15:43;5.60;;;5.00;;
17631;SDS011;8934;51.194;17.150;2023-06-19T13:18:31;5.13;;;4.72;;
17631;SDS011;8934;51.194;17.150;2023-06-19T13:21:18;5.32;;;4.63;;
17631;SDS011;8934;51.194;17.150;2023-06-19T13:24:06;5.35;;;4.88;;
17631;SDS011;8934;51.194;17.150;2023-06-19T13:26:54;6.35;;;4.60;;
17631;SDS011;8934;51.194;17.150;2023-06-19T13:29:43;5.32;;;4.82;;
17631;SDS011;8934;51.194;17.150;2023-06-19T13:32:31;5.63;;;5.05;;
17631;SDS011;8934;51.194;17.150;2023-06-19T13:35:18;5.05;;;4.55;;
17631;SDS011;8934;51.194;17.150;2023-06-19T13:38:07;4.93;;;4.53;;
17631;SDS011;8934;51.194;17.150;2023-06-19T13:40:55;5.82;;;4.75;;
17631;SDS011;8934;51.194;17.150;2023-06-19T13:43:42;5.40;;;4.88;;
17631;SDS011;8934;51.194;17.150;2023-06-19T13:46:33;5.10;;;4.70;;
17631;SDS011;8934;51.194;17.150;2023-06-19T13:49:20;6.32;;;4.95;;
17631;SDS011;8934;51.194;17.150;2023-06-19T13:52:08;4.63;;;4.32;;
17631;SDS011;8934;51.194;17.150;2023-06-19T13:54:56;4.70;;;4.28;;
17631;SDS011;8934;51.194;17.150;2023-06-19T13:57:43;5.15;;;4.65;;
17631;SDS011;8934;51.194;17.150;2023-06-19T14:00:31;5.72;;;4.25;;
17631;SDS011;8934;51.194;17.150;2023-06-19T14:03:22;4.13;;;3.78;;
17631;SDS011;8934;51.194;17.150;2023-06-19T14:06:10;4.80;;;4.40;;
17631;SDS011;8934;51.194;17.150;2023-06-19T14:08:58;4.90;;;4.47;;
17631;SDS011;8934;51.194;17.150;2023-06-19T14:11:45;6.05;;;4.40;;
17631;SDS011;8934;51.194;17.150;2023-06-19T14:14:33;4.90;;;4.40;;
17631;SDS011;8934;51.194;17.150;2023-06-19T14:17:21;4.72;;;4.22;;
17631;SDS011;8934;51.194;17.150;2023-06-19T14:20:11;5.10;;;4.60;;
17631;SDS011;8934;51.194;17.150;2023-06-19T14:22:59;4.60;;;4.15;;
17631;SDS011;8934;51.194;17.150;2023-06-19T14:25:46;4.97;;;4.57;;
17631;SDS011;8934;51.194;17.150;2023-06-19T14:28:34;5.40;;;4.95;;
17631;SDS011;8934;51.194;17.150;2023-06-19T14:31:23;4.57;;;4.18;;
17631;SDS011;8934;51.194;17.150;2023-06-19T14:34:11;5.47;;;4.97;;
17631;SDS011;8934;51.194;17.150;2023-06-19T14:37:00;9.10;;;5.43;;
17631;SDS011;8934;51.194;17.150;2023-06-19T14:39:47;4.82;;;4.43;;
17631;SDS011;8934;51.194;17.150;2023-06-19T14:42:35;5.03;;;4.53;;
17631;SDS011;8934;51.194;17.150;2023-06-19T14:45:22;6.03;;;4.82;;
17631;SDS011;8934;51.194;17.150;2023-06-19T14:48:10;4.60;;;4.20;;
17631;SDS011;8934;51.194;17.150;2023-06-19T14:50:58;5.47;;;4.53;;
17631;SDS011;8934;51.194;17.150;2023-06-19T14:53:47;5.40;;;4.90;;
17631;SDS011;8934;51.194;17.150;2023-06-19T14:56:35;5.10;;;4.60;;
17631;SDS011;8934;51.194;17.150;2023-06-19T14:59:22;5.00;;;4.53;;
17631;SDS011;8934;51.194;17.150;2023-06-19T15:02:10;5.57;;;5.07;;
17631;SDS011;8934;51.194;17.150;2023-06-19T15:04:58;5.70;;;5.20;;
17631;SDS011;8934;51.194;17.150;2023-06-19T15:07:52;5.40;;;4.90;;
17631;SDS011;8934;51.194;17.150;2023-06-19T15:10:41;5.80;;;4.88;;
17631;SDS011;8934;51.194;17.150;2023-06-19T15:13:28;7.85;;;5.00;;
17631;SDS011;8934;51.194;17.150;2023-06-19T15:16:16;5.25;;;4.85;;
17631;SDS011;8934;51.194;17.150;2023-06-19T15:19:05;4.80;;;4.40;;
17631;SDS011;8934;51.194;17.150;2023-06-19T15:21:53;5.82;;;5.32;;
17631;SDS011;8934;51.194;17.150;2023-06-19T15:24:41;7.30;;;5.22;;
17631;SDS011;8934;51.194;17.150;2023-06-19T15:27:30;6.15;;;5.45;;
17631;SDS011;8934;51.194;17.150;2023-06-19T15:30:17;5.85;;;5.25;;
17631;SDS011;8934;51.194;17.150;2023-06-19T15:33:05;5.00;;;4.60;;
17631;SDS011;8934;51.194;17.150;2023-06-19T15:35:52;5.68;;;5.10;;
17631;SDS011;8934;51.194;17.150;2023-06-19T15:38:40;7.90;;;5.50;;
17631;SDS011;8934;51.194;17.150;2023-06-19T15:41:27;5.75;;;5.15;;
17631;SDS011;8934;51.194;17.150;2023-06-19T15:44:16;5.68;;;5.13;;
17631;SDS011;8934;51.194;17.150;2023-06-19T15:47:05;5.95;;;5.30;;
17631;SDS011;8934;51.194;17.150;2023-06-19T15:49:53;7.22;;;5.30;;
17631;SDS011;8934;51.194;17.150;2023-06-19T15:52:40;7.88;;;5.70;;
17631;SDS011;8934;51.194;17.150;2023-06-19T15:55:28;5.60;;;5.10;;
17631;SDS011;8934;51.194;17.150;2023-06-19T15:58:15;6.32;;;5.40;;
17631;SDS011;8934;51.194;17.150;2023-06-19T16:01:04;5.90;;;5.40;;
17631;SDS011;8934;51.194;17.150;2023-06-19T16:03:51;6.90;;;5.68;;
17631;SDS011;8934;51.194;17.150;2023-06-19T16:06:39;9.50;;;5.80;;
17631;SDS011;8934;51.194;17.150;2023-06-19T16:09:27;6.32;;;5.57;;
17631;SDS011;8934;51.194;17.150;2023-06-19T16:12:24;10.25;;;5.90;;
17631;SDS011;8934;51.194;17.150;2023-06-19T16:15:12;5.50;;;4.95;;
17631;SDS011;8934;51.194;17.150;2023-06-19T16:18:03;5.72;;;5.10;;
17631;SDS011;8934;51.194;17.150;2023-06-19T16:20:51;6.63;;;5.38;;
17631;SDS011;8934;51.194;17.150;2023-06-19T16:23:38;5.70;;;5.13;;
17631;SDS011;8934;51.194;17.150;2023-06-19T16:26:26;5.95;;;5.40;;
17631;SDS011;8934;51.194;17.150;2023-06-19T16:29:14;6.30;;;5.50;;
17631;SDS011;8934;51.194;17.150;2023-06-19T16:32:02;5.88;;;5.38;;
17631;SDS011;8934;51.194;17.150;2023-06-19T16:34:57;7.15;;;5.93;;
17631;SDS011;8934;51.194;17.150;2023-06-19T16:37:44;6.30;;;5.75;;
17631;SDS011;8934;51.194;17.150;2023-06-19T16:40:31;5.97;;;5.47;;
17631;SDS011;8934;51.194;17.150;2023-06-19T16:43:19;6.63;;;5.90;;
17631;SDS011;8934;51.194;17.150;2023-06-19T16:46:07;7.15;;;6.45;;